Time;durP1;ratioP1;P1;durP2;ratioP2;P2;SDS_P1;SDS_P2;PMS_P1;PMS_P2;Temp;Humidity;BMP_temperature;BMP_pressure;BME280_temperature;BME280_humidity;BME280_pressure;Samples;Min_cycle;Max_cycle;Signal;HPM_P1;HPM_P2
2022/03/05 00:00:17;;;;;;;26.40;15.13;;;;;;;3.33;43.73;95513.69;4931487;29;20135;-68
2022/03/05 00:02:43;;;;;;;24.27;14.25;;;;;;;3.37;43.19;95517.38;4931951;29;20031;-68
2022/03/05 00:05:10;;;;;;;27.83;14.65;;;;;;;3.13;43.41;95478.28;4931506;29;20423;-70
2022/03/05 00:07:35;;;;;;;27.25;13.85;;;;;;;2.86;43.67;95459.06;4933069;29;20028;-69
2022/03/05 00:10:01;;;;;;;29.63;14.45;;;;;;;2.98;43.48;95459.72;4932833;29;20449;-68
2022/03/05 00:12:26;;;;;;;28.40;15.18;;;;;;;3.26;43.37;95502.56;4932851;29;20061;-68
2022/03/05 00:14:51;;;;;;;25.60;14.48;;;;;;;2.96;44.09;95489.91;4933152;29;20055;-69
2022/03/05 00:17:17;;;;;;;24.35;14.75;;;;;;;3.08;43.77;95480.84;4935254;28;20067;-69
2022/03/05 00:19:42;;;;;;;27.27;14.65;;;;;;;3.14;43.68;95492.19;4936169;29;20032;-67
2022/03/05 00:22:08;;;;;;;32.03;15.15;;;;;;;3.30;43.70;95511.53;4936392;29;20412;-68
2022/03/05 00:24:33;;;;;;;29.13;14.80;;;;;;;2.98;43.43;95461.56;4936388;29;20035;-69
2022/03/05 00:26:59;;;;;;;29.55;14.38;;;;;;;2.80;44.36;95491.56;4936643;29;20035;-69
2022/03/05 00:29:25;;;;;;;28.42;15.73;;;;;;;3.09;44.63;95521.06;4936769;29;20028;-69
2022/03/05 00:31:50;;;;;;;27.75;15.43;;;;;;;3.04;44.41;95492.88;4934877;29;20042;-69
2022/03/05 00:34:16;;;;;;;29.08;16.05;;;;;;;3.03;43.82;95480.00;4935963;29;20028;-69
2022/03/05 00:36:41;;;;;;;28.20;16.17;;;;;;;3.05;44.17;95488.44;4936076;29;20063;-69
2022/03/05 00:39:07;;;;;;;30.35;15.32;;;;;;;3.11;43.78;95493.47;4935846;29;20027;-69
2022/03/05 00:41:33;;;;;;;32.75;17.08;;;;;;;3.09;44.20;95502.66;4936110;29;20082;-68
2022/03/05 00:43:59;;;;;;;31.60;16.83;;;;;;;2.89;44.35;95484.06;4935128;29;20086;-69
2022/03/05 00:46:24;;;;;;;31.00;15.35;;;;;;;3.04;44.68;95505.25;4934869;29;20032;-70
2022/03/05 00:48:50;;;;;;;32.53;17.42;;;;;;;2.77;45.29;95486.81;4935832;29;20032;-68
2022/03/05 00:51:15;;;;;;;34.30;16.55;;;;;;;2.61;46.06;95488.50;4935404;29;20036;-69
2022/03/05 00:53:40;;;;;;;32.13;16.95;;;;;;;2.88;45.16;95485.91;4935653;29;20477;-69
2022/03/05 00:56:06;;;;;;;28.40;16.13;;;;;;;2.79;45.31;95492.63;4935928;29;20036;-68
2022/03/05 00:58:31;;;;;;;30.80;16.33;;;;;;;2.63;46.20;95491.66;4934459;29;20118;-69
2022/03/05 01:00:57;;;;;;;33.05;16.52;;;;;;;2.94;45.77;95499.88;4935864;29;20110;-70
2022/03/05 01:03:22;;;;;;;29.63;16.77;;;;;;;2.74;45.51;95467.09;4951798;28;20037;-68
2022/03/05 01:05:50;;;;;;;31.45;16.90;;;;;;;2.80;45.64;95494.19;4954522;28;20031;-67
2022/03/05 01:08:15;;;;;;;35.40;18.05;;;;;;;2.63;45.50;95462.75;4954913;29;20024;-68
2022/03/05 01:10:41;;;;;;;34.10;17.75;;;;;;;2.64;45.42;95438.09;4954291;29;20031;-67
2022/03/05 01:13:06;;;;;;;35.08;18.70;;;;;;;2.84;45.69;95484.78;4937825;29;20035;-68
2022/03/05 01:15:32;;;;;;;34.83;18.45;;;;;;;2.85;45.41;95495.03;4954863;29;20511;-69
2022/03/05 01:17:57;;;;;;;33.50;17.75;;;;;;;2.60;46.11;95476.38;4955358;29;20500;-69
2022/03/05 01:20:23;;;;;;;39.55;18.58;;;;;;;2.58;46.13;95475.84;4954751;29;20027;-69
2022/03/05 01:22:48;;;;;;;29.75;16.95;;;;;;;2.74;46.38;95495.19;4955221;29;20023;-70
2022/03/05 01:25:14;;;;;;;33.60;18.42;;;;;;;2.60;46.10;95479.78;4955355;28;20039;-70
2022/03/05 01:27:39;;;;;;;38.10;19.27;;;;;;;2.39;46.77;95469.28;4954659;28;20501;-69
2022/03/05 01:30:05;;;;;;;32.20;18.20;;;;;;;2.15;46.86;95431.97;4954391;29;20032;-69
2022/03/05 01:32:30;;;;;;;33.55;18.13;;;;;;;2.65;46.58;95488.78;4954399;28;20039;-68
2022/03/05 01:34:56;;;;;;;34.78;17.45;;;;;;;2.20;46.88;95466.16;4953884;28;20079;-70
2022/03/05 01:37:21;;;;;;;31.27;17.65;;;;;;;2.75;46.07;95499.41;4937091;29;20032;-69
2022/03/05 01:39:47;;;;;;;33.67;17.95;;;;;;;2.71;46.65;95491.19;4954106;28;20035;-69
2022/03/05 01:42:12;;;;;;;34.60;18.38;;;;;;;2.44;46.64;95462.28;4954217;29;20032;-68
2022/03/05 01:44:38;;;;;;;33.53;17.73;;;;;;;2.48;46.26;95450.25;4954216;28;20396;-68
2022/03/05 01:47:04;;;;;;;39.15;18.98;;;;;;;2.73;46.77;95496.22;4937070;29;20035;-68
2022/03/05 01:49:30;;;;;;;34.13;18.23;;;;;;;2.51;47.23;95480.50;4953653;29;20027;-68
2022/03/05 01:51:56;;;;;;;35.83;17.92;;;;;;;2.47;46.80;95474.13;4936506;29;20038;-68
2022/03/05 01:54:23;;;;;;;33.13;18.50;;;;;;;2.60;46.67;95486.88;4936635;29;20046;-68
2022/03/05 01:56:49;;;;;;;31.73;17.73;;;;;;;2.32;48.02;95486.03;4954174;29;20114;-69
2022/03/05 01:59:15;;;;;;;36.65;17.50;;;;;;;2.36;47.53;95464.56;4953853;29;20039;-70
2022/03/05 02:01:41;;;;;;;36.53;18.77;;;;;;;2.52;46.72;95469.72;4953688;28;20072;-69
2022/03/05 02:04:07;;;;;;;35.08;17.95;;;;;;;2.40;47.18;95452.50;4954101;28;20031;-68
2022/03/05 02:06:33;;;;;;;35.45;18.15;;;;;;;2.66;47.10;95496.41;4936241;29;20039;-68
2022/03/05 02:08:59;;;;;;;32.90;17.52;;;;;;;2.56;47.00;95486.59;4953561;29;20535;-69
2022/03/05 02:11:25;;;;;;;37.38;19.08;;;;;;;2.35;47.54;95458.47;4953677;29;20031;-69
2022/03/05 02:13:51;;;;;;;37.78;18.33;;;;;;;2.50;47.64;95490.16;4953880;28;20094;-69
2022/03/05 02:16:18;;;;;;;38.67;18.52;;;;;;;2.31;47.64;95466.06;4953831;29;20039;-69
2022/03/05 02:18:45;;;;;;;37.35;19.33;;;;;;;2.44;47.60;95485.09;4953634;29;20039;-69
2022/03/05 02:21:11;;;;;;;30.38;17.73;;;;;;;2.37;47.61;95476.63;4952807;29;20039;-69
2022/03/05 02:23:36;;;;;;;35.97;19.08;;;;;;;2.34;47.31;95464.78;4953206;28;20031;-69
2022/03/05 02:26:02;;;;;;;34.55;18.55;;;;;;;2.50;47.07;95481.50;4953532;28;20042;-70
2022/03/05 02:28:29;;;;;;;38.78;19.52;;;;;;;2.41;47.19;95477.75;4953296;29;20106;-69
2022/03/05 02:30:55;;;;;;;41.38;19.60;;;;;;;2.38;48.05;95489.50;4935861;29;20107;-68
2022/03/05 02:33:21;;;;;;;34.55;18.17;;;;;;;2.41;48.08;95494.28;4953270;28;20359;-69
2022/03/05 02:35:47;;;;;;;36.50;19.60;;;;;;;1.88;47.33;95380.22;4952962;29;20035;-68
2022/03/05 02:38:18;;;;;;;40.17;20.15;;;;;;;2.49;47.42;95467.59;4953165;28;20486;-69
2022/03/05 02:40:44;;;;;;;37.42;17.92;;;;;;;2.24;47.75;95430.53;4953080;28;20035;-69
2022/03/05 02:43:10;;;;;;;30.98;17.60;;;;;;;2.53;47.60;95468.69;4953372;28;20058;-68
2022/03/05 02:45:36;;;;;;;38.38;19.33;;;;;;;2.50;47.93;95466.53;4953179;28;20058;-69
2022/03/05 02:48:04;;;;;;;39.08;18.58;;;;;;;2.32;47.96;95456.34;4953374;29;20027;-70
2022/03/05 02:50:30;;;;;;;34.25;18.63;;;;;;;1.85;47.77;95378.09;4935497;28;20039;-69
2022/03/05 02:52:56;;;;;;;37.33;19.08;;;;;;;2.53;47.42;95455.56;4935553;28;20027;-68
2022/03/05 02:55:21;;;;;;;38.92;18.60;;;;;;;2.45;47.10;95436.81;4935691;29;20035;-68
2022/03/05 02:57:47;;;;;;;38.58;19.15;;;;;;;2.43;47.07;95437.06;4935821;29;20166;-69
2022/03/05 03:00:13;;;;;;;34.45;19.25;;;;;;;2.40;47.55;95457.75;4935279;29;20032;-69
2022/03/05 03:02:38;;;;;;;34.40;18.48;;;;;;;2.23;47.76;95436.81;4935579;29;20039;-68
2022/03/05 03:05:05;;;;;;;43.70;19.95;;;;;;;2.30;48.33;95454.00;4952187;28;20463;-69
2022/03/05 03:07:30;;;;;;;36.50;18.95;;;;;;;2.40;47.68;95445.41;4952505;29;20031;-69
2022/03/05 03:09:58;;;;;;;38.05;20.00;;;;;;;2.26;47.60;95431.09;4952605;29;20073;-68
2022/03/05 03:12:24;;;;;;;42.75;19.75;;;;;;;2.11;48.57;95436.94;4952807;28;20035;-68
2022/03/05 03:14:50;;;;;;;39.70;19.20;;;;;;;1.93;48.37;95430.13;4935504;29;20104;-68
2022/03/05 03:17:17;;;;;;;38.50;19.65;;;;;;;2.15;48.10;95440.66;4952715;28;20392;-68
2022/03/05 03:19:42;;;;;;;36.08;18.90;;;;;;;2.10;48.29;95417.00;4952543;28;20034;-70
2022/03/05 03:22:08;;;;;;;37.53;19.80;;;;;;;2.20;48.19;95424.16;4935000;29;20036;-69
2022/03/05 03:24:33;;;;;;;42.85;19.70;;;;;;;2.07;48.12;95401.72;4952508;28;20031;-68
2022/03/05 03:26:58;;;;;;;42.90;19.90;;;;;;;2.18;47.73;95429.66;4952701;28;20041;-69
2022/03/05 03:29:24;;;;;;;44.17;20.88;;;;;;;2.19;48.12;95436.50;4952586;29;20028;-69
2022/03/05 03:31:49;;;;;;;36.88;19.25;;;;;;;2.17;47.95;95429.91;4952405;28;20484;-68
2022/03/05 03:34:15;;;;;;;39.78;19.42;;;;;;;2.16;48.04;95433.59;4935398;29;20039;-68
2022/03/05 03:36:40;;;;;;;38.58;19.60;;;;;;;2.01;48.35;95408.75;4952086;28;20039;-68
2022/03/05 03:39:05;;;;;;;37.47;19.45;;;;;;;2.17;48.21;95425.47;4935053;29;20543;-68
2022/03/05 03:41:31;;;;;;;36.50;19.40;;;;;;;2.01;48.53;95427.09;4952437;29;20031;-69
2022/03/05 03:43:56;;;;;;;38.05;19.27;;;;;;;1.80;48.47;95385.91;4935246;29;20543;-68
2022/03/05 03:46:22;;;;;;;42.67;20.58;;;;;;;2.22;48.74;95450.97;4952670;29;20035;-68
2022/03/05 03:48:47;;;;;;;39.53;19.33;;;;;;;2.14;48.24;95433.81;4952314;28;20035;-69
2022/03/05 03:51:13;;;;;;;36.80;19.08;;;;;;;1.86;49.07;95419.03;4935314;29;20035;-68
2022/03/05 03:53:38;;;;;;;37.28;19.00;;;;;;;1.91;49.10;95416.47;4956090;28;20028;-69
2022/03/05 03:56:04;;;;;;;38.58;19.13;;;;;;;1.91;48.80;95399.94;4956121;29;20043;-68
2022/03/05 03:58:29;;;;;;;39.88;20.20;;;;;;;2.07;48.30;95439.25;4955975;29;20098;-68
2022/03/05 04:00:55;;;;;;;41.63;20.55;;;;;;;2.00;48.59;95435.22;4955155;29;20171;-68
2022/03/05 04:03:20;;;;;;;41.75;19.95;;;;;;;2.13;48.63;95460.31;4955463;28;20030;-68
2022/03/05 04:05:46;;;;;;;36.75;18.85;;;;;;;1.89;48.83;95426.41;4955711;29;20102;-68
2022/03/05 04:10:55;;;;;;;41.05;19.85;;;;;;;2.11;48.46;95465.81;4956031;29;20073;-68
2022/03/05 04:13:20;;;;;;;41.05;20.05;;;;;;;1.85;48.59;95424.53;4938749;29;20130;-68
2022/03/05 04:15:46;;;;;;;46.88;20.73;;;;;;;2.00;48.65;95449.13;4955923;29;20031;-68
2022/03/05 04:18:12;;;;;;;45.60;22.00;;;;;;;1.98;48.67;95450.41;4955923;28;20053;-68
2022/03/05 04:20:37;;;;;;;38.15;19.98;;;;;;;1.93;48.56;95440.63;4955227;29;20065;-69
2022/03/05 04:23:03;;;;;;;44.33;21.65;;;;;;;1.82;48.88;95426.56;4955796;28;20059;-68
2022/03/05 04:25:29;;;;;;;37.50;19.73;;;;;;;2.01;49.09;95463.84;4938381;29;20071;-68
2022/03/05 04:27:54;;;;;;;39.35;20.13;;;;;;;1.75;49.12;95443.53;4955650;29;20439;-69
2022/03/05 04:30:20;;;;;;;47.63;21.08;;;;;;;1.86;49.07;95458.38;4955274;29;20039;-68
2022/03/05 04:32:45;;;;;;;41.55;20.52;;;;;;;1.65;49.51;95443.38;4955493;28;20396;-68
2022/03/05 04:35:11;;;;;;;38.53;19.15;;;;;;;1.56;50.25;95445.59;4955684;29;20063;-69
2022/03/05 04:37:37;;;;;;;42.08;19.90;;;;;;;1.85;49.65;95453.38;4945065;29;20500;-68
2022/03/05 04:40:04;;;;;;;41.78;20.35;;;;;;;1.90;49.81;95474.44;4937903;29;20042;-68
2022/03/05 04:42:30;;;;;;;41.20;19.98;;;;;;;1.95;49.50;95490.25;4955141;28;20337;-69
2022/03/05 04:44:55;;;;;;;40.67;20.02;;;;;;;1.69;50.11;95450.53;4955398;29;20027;-68
2022/03/05 04:47:21;;;;;;;39.67;19.67;;;;;;;1.81;50.16;95495.03;4938117;29;20031;-69
2022/03/05 04:49:46;;;;;;;39.28;19.48;;;;;;;1.93;49.61;95479.97;4937925;29;20481;-70
2022/03/05 04:52:12;;;;;;;42.35;20.98;;;;;;;1.94;49.51;95476.31;4937290;29;20471;-68
2022/03/05 04:54:37;;;;;;;44.58;20.10;;;;;;;1.55;50.04;95439.56;4954916;28;20033;-69
2022/03/05 04:57:03;;;;;;;41.15;19.95;;;;;;;1.71;50.50;95479.94;4937978;29;20025;-69
2022/03/05 04:59:29;;;;;;;44.17;20.23;;;;;;;1.66;50.22;95460.69;4954973;29;20027;-70
2022/03/05 05:01:56;;;;;;;39.88;19.60;;;;;;;1.48;50.22;95423.19;4969772;23;20090;-68
2022/03/05 05:04:22;;;;;;;37.75;20.63;;;;;;;1.90;49.98;95466.56;5010692;28;20390;-68
2022/03/05 05:06:47;;;;;;;37.53;20.52;;;;;;;1.93;50.35;95472.09;5017036;28;20040;-67
2022/03/05 05:09:13;;;;;;;38.72;19.80;;;;;;;1.80;50.18;95454.09;5032874;28;20037;-67
2022/03/05 05:11:39;;;;;;;38.63;19.63;;;;;;;1.87;50.10;95483.56;5033062;28;20429;-67
2022/03/05 05:14:04;;;;;;;40.10;20.65;;;;;;;1.81;50.10;95472.22;5032952;28;20021;-67
2022/03/05 05:16:30;;;;;;;39.08;20.52;;;;;;;1.77;50.34;95471.09;5033100;28;20367;-67
2022/03/05 05:21:39;;;;;;;40.33;20.63;;;;;;;2.00;50.22;95488.50;5032208;28;20048;-68
2022/03/05 05:24:05;;;;;;;39.22;20.25;;;;;;;1.91;50.37;95486.50;5032623;28;20021;-68
2022/03/05 05:26:31;;;;;;;45.13;21.73;;;;;;;1.87;49.88;95462.56;5032708;28;20037;-69
2022/03/05 05:28:56;;;;;;;46.67;21.25;;;;;;;1.80;49.43;95460.13;5014673;28;20091;-66
2022/03/05 05:31:22;;;;;;;39.05;20.25;;;;;;;1.79;50.47;95483.97;5015052;28;20056;-67
2022/03/05 05:33:49;;;;;;;40.17;21.23;;;;;;;1.79;50.32;95476.09;5014736;28;20029;-69
2022/03/05 05:36:15;;;;;;;43.65;21.08;;;;;;;1.92;49.86;95491.50;5031878;28;20120;-68
2022/03/05 05:38:40;;;;;;;43.78;21.95;;;;;;;1.76;50.70;95481.84;5032089;28;20701;-69
2022/03/05 05:41:06;;;;;;;44.05;21.98;;;;;;;1.76;50.50;95466.09;5014255;28;20029;-68
2022/03/05 05:43:32;;;;;;;43.00;21.80;;;;;;;1.80;50.98;95477.69;5032470;28;20063;-68
2022/03/05 05:45:57;;;;;;;40.65;21.88;;;;;;;1.80;50.54;95477.69;5032381;28;20441;-68
2022/03/05 05:48:23;;;;;;;44.60;21.05;;;;;;;1.71;50.75;95471.25;5032088;28;20041;-68
2022/03/05 05:50:48;;;;;;;48.35;22.90;;;;;;;1.75;51.20;95477.63;5029625;28;20518;-67
2022/03/05 05:53:14;;;;;;;49.60;23.10;;;;;;;1.83;50.77;95482.44;5027855;28;20127;-67
2022/03/05 05:55:39;;;;;;;48.97;23.58;;;;;;;1.85;50.73;95475.16;5032038;28;20021;-68
2022/03/05 05:58:05;;;;;;;48.58;23.13;;;;;;;1.85;51.25;95485.66;5032084;28;20078;-67
2022/03/05 06:00:30;;;;;;;48.00;22.02;;;;;;;1.83;50.71;95474.59;5032722;28;20025;-68
2022/03/05 06:02:55;;;;;;;52.40;22.95;;;;;;;2.04;50.59;95502.69;5032077;28;20033;-68
2022/03/05 06:05:21;;;;;;;45.42;23.33;;;;;;;1.91;50.97;95494.38;5032230;28;20029;-72
2022/03/05 06:07:46;;;;;;;46.67;22.65;;;;;;;2.06;50.96;95508.50;5008386;28;20108;-70
2022/03/05 06:10:12;;;;;;;46.70;23.67;;;;;;;2.12;50.70;95513.81;5013859;28;20032;-69
2022/03/05 06:12:37;;;;;;;47.10;23.95;;;;;;;2.08;50.85;95503.81;5014092;28;20393;-68
2022/03/05 06:15:08;;;;;;;46.60;23.00;;;;;;;1.97;51.00;95499.44;5013834;28;20032;-67
2022/03/05 06:17:34;;;;;;;50.40;23.73;;;;;;;1.96;51.32;95492.63;5031865;28;20028;-68
2022/03/05 06:20:00;;;;;;;44.17;22.98;;;;;;;2.04;51.33;95500.06;5031496;28;20017;-67
2022/03/05 06:22:26;;;;;;;48.78;23.35;;;;;;;2.20;50.76;95506.34;5030593;28;20041;-67
2022/03/05 06:24:51;;;;;;;48.13;23.17;;;;;;;2.17;50.88;95487.66;5031402;28;20037;-68
2022/03/05 06:27:17;;;;;;;49.05;24.02;;;;;;;2.36;50.49;95496.84;5031538;28;20378;-68
2022/03/05 06:29:42;;;;;;;46.53;23.70;;;;;;;2.32;51.05;95501.78;5031333;28;20532;-68
2022/03/05 06:32:08;;;;;;;56.88;24.17;;;;;;;2.44;50.76;95496.41;5031276;28;20104;-68
2022/03/05 06:34:33;;;;;;;46.58;24.17;;;;;;;2.57;50.19;95503.94;5031461;28;20076;-68
2022/03/05 06:37:00;;;;;;;46.63;23.25;;;;;;;2.52;50.78;95519.63;5030621;28;20068;-68
2022/03/05 06:39:26;;;;;;;45.92;23.35;;;;;;;2.50;50.59;95521.69;5031277;28;20056;-69
2022/03/05 06:41:51;;;;;;;48.92;23.42;;;;;;;2.47;50.57;95524.00;5031742;28;20025;-69
2022/03/05 06:44:17;;;;;;;48.00;24.08;;;;;;;2.45;50.77;95502.44;5031440;28;20033;-69
2022/03/05 06:46:42;;;;;;;47.42;22.80;;;;;;;2.72;50.39;95515.66;5031431;28;20032;-69
2022/03/05 06:49:07;;;;;;;43.70;22.38;;;;;;;2.63;50.58;95519.75;5031162;28;20487;-69
2022/03/05 06:51:33;;;;;;;42.22;21.85;;;;;;;2.52;50.58;95476.81;5029981;28;20037;-70
2022/03/05 06:53:59;;;;;;;49.65;23.65;;;;;;;2.91;50.48;95526.63;5013508;28;20037;-69
2022/03/05 06:56:25;;;;;;;45.10;23.27;;;;;;;3.05;49.88;95526.00;5031008;28;20389;-69
2022/03/05 06:58:50;;;;;;;47.50;22.73;;;;;;;3.05;50.26;95536.53;5030799;28;20044;-68
2022/03/05 07:01:15;;;;;;;49.08;22.58;;;;;;;2.63;50.74;95501.38;5030752;28;20499;-69
2022/03/05 07:03:41;;;;;;;42.42;22.17;;;;;;;2.87;50.30;95539.50;5030648;28;20432;-69
2022/03/05 07:06:07;;;;;;;43.22;23.70;;;;;;;3.13;50.17;95538.72;5012388;28;20040;-68
2022/03/05 07:08:32;;;;;;;47.00;22.45;;;;;;;2.93;50.55;95538.50;5030331;28;20025;-68
2022/03/05 07:10:57;;;;;;;47.50;22.55;;;;;;;3.20;49.92;95537.72;5030546;28;20071;-68
2022/03/05 07:13:23;;;;;;;48.92;24.80;;;;;;;2.96;50.31;95537.19;5030619;28;20033;-68
2022/03/05 07:15:48;;;;;;;43.95;22.27;;;;;;;3.17;49.99;95532.97;5030693;28;20105;-68
2022/03/05 07:18:13;;;;;;;41.85;22.70;;;;;;;3.25;49.59;95514.91;5012927;28;20055;-69
2022/03/05 07:20:39;;;;;;;44.85;23.73;;;;;;;3.31;49.67;95539.41;5030465;28;20105;-68
2022/03/05 07:23:04;;;;;;;51.47;23.42;;;;;;;3.46;49.49;95521.16;5029444;28;20034;-69
2022/03/05 07:25:36;;;;;;;44.63;21.92;;;;;;;3.38;49.15;95540.03;5030163;28;20030;-69
2022/03/05 07:28:03;;;;;;;45.15;22.70;;;;;;;3.41;49.20;95529.00;5030356;28;20532;-69
2022/03/05 07:30:28;;;;;;;42.35;22.80;;;;;;;3.70;48.90;95536.63;5030105;28;20056;-69
2022/03/05 07:32:53;;;;;;;45.58;22.95;;;;;;;3.80;48.68;95534.88;5030636;28;20030;-70
2022/03/05 07:35:19;;;;;;;43.30;23.63;;;;;;;3.62;49.12;95545.75;5030555;28;20517;-70
2022/03/05 07:37:44;;;;;;;40.97;21.85;;;;;;;3.61;49.19;95550.22;5029502;28;20040;-70
2022/03/05 07:40:11;;;;;;;40.58;22.33;;;;;;;3.25;49.75;95522.00;5029977;28;20065;-69
2022/03/05 07:42:36;;;;;;;43.22;23.17;;;;;;;3.93;48.69;95541.53;5030415;28;20029;-69
2022/03/05 07:45:03;;;;;;;43.80;22.45;;;;;;;3.64;48.75;95548.94;5030479;28;20026;-68
2022/03/05 07:47:28;;;;;;;44.25;23.92;;;;;;;3.92;48.23;95521.53;5012746;28;20052;-71
2022/03/05 07:49:54;;;;;;;40.45;23.55;;;;;;;4.18;48.10;95543.56;5012416;28;20429;-66
2022/03/05 07:52:19;;;;;;;41.35;23.80;;;;;;;3.80;48.44;95540.13;5029270;28;20033;-66
2022/03/05 07:54:45;;;;;;;45.78;23.30;;;;;;;3.92;48.59;95537.31;5030219;28;20044;-66
2022/03/05 07:57:11;;;;;;;46.45;24.20;;;;;;;3.96;48.42;95540.25;5012602;28;20041;-64
2022/03/05 07:59:36;;;;;;;40.33;23.63;;;;;;;3.65;48.96;95524.22;5012502;28;20025;-65
2022/03/05 08:02:02;;;;;;;49.35;23.77;;;;;;;3.76;48.88;95528.53;5029794;28;20108;-66
2022/03/05 08:04:27;;;;;;;40.47;22.90;;;;;;;3.92;48.43;95527.59;5012500;28;20060;-66
2022/03/05 08:06:53;;;;;;;42.08;23.45;;;;;;;3.41;49.57;95538.72;5029473;28;20454;-66
2022/03/05 08:09:18;;;;;;;48.65;24.15;;;;;;;4.03;48.42;95540.81;5030019;28;20076;-65
2022/03/05 08:11:43;;;;;;;41.90;23.50;;;;;;;3.78;48.48;95475.63;5029848;28;20088;-65
2022/03/05 08:14:09;;;;;;;42.08;23.92;;;;;;;4.29;47.93;95534.69;5030108;28;20060;-66
2022/03/05 08:16:34;;;;;;;45.03;24.80;;;;;;;4.17;47.85;95524.34;5030243;28;20108;-66
2022/03/05 08:19:00;;;;;;;45.20;24.13;;;;;;;4.24;47.88;95541.75;5012166;28;20124;-65
2022/03/05 08:21:27;;;;;;;44.38;23.25;;;;;;;4.05;48.41;95539.53;5011570;28;20034;-67
2022/03/05 08:23:52;;;;;;;43.20;23.88;;;;;;;4.46;50.18;95534.53;5030029;28;20040;-69
2022/03/05 08:26:18;;;;;;;39.80;23.33;;;;;;;4.83;48.83;95518.63;5012418;28;20033;-68
2022/03/05 08:28:45;;;;;;;41.63;23.83;;;;;;;5.33;47.51;95542.78;5029865;28;20462;-69
2022/03/05 08:31:11;;;;;;;41.22;23.77;;;;;;;5.40;45.70;95535.41;5029824;28;20033;-69
2022/03/05 08:33:40;;;;;;;39.45;23.23;;;;;;;5.77;45.47;95555.50;5029954;28;20222;-68
2022/03/05 08:36:07;;;;;;;41.58;23.17;;;;;;;5.79;44.91;95541.00;5012302;28;20435;-69
2022/03/05 08:38:34;;;;;;;45.80;23.73;;;;;;;5.74;43.48;95533.06;5031602;28;20055;-70
2022/03/05 08:41:00;;;;;;;42.08;23.30;;;;;;;5.59;44.30;95551.53;5033299;28;20028;-74
2022/03/05 08:43:26;;;;;;;36.17;22.08;;;;;;;5.50;45.24;95547.81;5033609;28;20104;-69
2022/03/05 08:45:52;;;;;;;39.88;22.45;;;;;;;4.88;45.37;95521.28;5016048;28;20164;-69
2022/03/05 08:48:18;;;;;;;39.28;23.25;;;;;;;4.97;45.94;95542.66;5015901;28;20445;-69
2022/03/05 08:50:43;;;;;;;42.10;22.60;;;;;;;5.54;45.17;95541.75;5033190;28;20033;-69
2022/03/05 08:53:09;;;;;;;40.55;23.25;;;;;;;5.09;46.01;95527.41;5032424;28;20075;-69
2022/03/05 08:55:34;;;;;;;36.72;23.08;;;;;;;5.22;45.47;95519.03;5033391;28;20071;-70
2022/03/05 08:57:59;;;;;;;38.65;22.50;;;;;;;4.99;45.90;95522.09;5016208;28;20029;-69
2022/03/05 09:00:26;;;;;;;35.78;21.60;;;;;;;5.53;44.89;95549.91;5033112;28;20045;-66
2022/03/05 09:02:51;;;;;;;34.85;21.08;;;;;;;5.66;44.39;95539.66;5033207;28;20034;-71
2022/03/05 09:05:17;;;;;;;38.33;21.80;;;;;;;5.67;44.22;95516.69;5033207;28;20035;-70
2022/03/05 09:07:43;;;;;;;32.92;20.65;;;;;;;5.85;43.67;95542.56;5007765;28;20068;-70
2022/03/05 09:10:09;;;;;;;37.60;21.35;;;;;;;5.86;43.22;95530.97;5032722;28;20022;-69
2022/03/05 09:12:35;;;;;;;34.13;21.73;;;;;;;5.90;43.21;95507.47;5014906;28;20091;-69
2022/03/05 09:15:00;;;;;;;41.92;22.17;;;;;;;5.75;42.91;95476.59;5015438;28;20026;-70
2022/03/05 09:17:26;;;;;;;30.70;20.17;;;;;;;5.74;42.78;95520.66;5033143;28;20014;-70
2022/03/05 09:19:53;;;;;;;27.98;19.35;;;;;;;5.91;42.54;95522.25;5032657;28;20021;-69
2022/03/05 09:22:19;;;;;;;31.80;19.73;;;;;;;6.24;42.05;95518.28;5014160;28;20470;-71
2022/03/05 09:24:44;;;;;;;34.90;20.48;;;;;;;7.19;40.94;95515.59;5006832;28;20078;-68
2022/03/05 09:27:10;;;;;;;32.40;20.67;;;;;;;7.52;39.77;95522.03;5032737;28;20034;-70
2022/03/05 09:29:35;;;;;;;30.10;19.60;;;;;;;7.40;39.52;95494.28;5032540;28;20132;-71
2022/03/05 09:32:02;;;;;;;26.40;17.83;;;;;;;6.81;39.38;95511.81;5014744;28;20103;-68
2022/03/05 09:34:28;;;;;;;25.50;18.17;;;;;;;6.48;39.73;95531.72;5032720;28;20029;-68
2022/03/05 09:36:54;;;;;;;25.70;17.73;;;;;;;6.69;39.67;95492.78;5030003;28;20033;-67
2022/03/05 09:39:19;;;;;;;29.02;18.27;;;;;;;6.80;38.75;95496.19;5028988;28;20025;-67
2022/03/05 09:41:45;;;;;;;27.58;18.27;;;;;;;7.60;39.21;95515.34;5032500;28;20076;-69
2022/03/05 09:44:10;;;;;;;25.38;18.60;;;;;;;7.82;37.30;95521.00;5032595;28;20529;-68
2022/03/05 09:46:36;;;;;;;25.42;17.65;;;;;;;8.10;37.53;95513.38;5032560;28;20508;-68
2022/03/05 09:49:03;;;;;;;22.90;15.13;;;;;;;7.96;35.25;95476.13;5013794;28;20034;-68
2022/03/05 09:51:29;;;;;;;24.45;16.23;;;;;;;9.06;34.57;95489.56;5014190;28;20198;-68
2022/03/05 09:53:55;;;;;;;19.42;14.65;;;;;;;9.44;32.46;95508.94;5031399;28;20045;-68
2022/03/05 09:56:21;;;;;;;24.60;16.30;;;;;;;9.36;33.00;95481.16;5014412;28;20017;-70
2022/03/05 09:58:48;;;;;;;21.52;15.98;;;;;;;9.27;32.08;95514.75;5031981;28;20504;-70
2022/03/05 10:01:15;;;;;;;20.15;15.90;;;;;;;8.87;33.35;95509.97;5014146;28;20107;-70
2022/03/05 10:03:52;;;;;;;22.10;16.40;;;;;;;8.75;33.48;95510.34;5031973;28;20044;-71
2022/03/05 10:06:28;;;;;;;22.58;15.80;;;;;;;8.81;33.36;95506.59;5032044;28;20467;-70
2022/03/05 10:08:55;;;;;;;23.42;15.32;;;;;;;9.18;32.70;95505.84;5008886;28;20021;-73
2022/03/05 10:11:22;;;;;;;14.90;12.45;;;;;;;9.25;32.11;95511.59;5013834;28;20025;-72
2022/03/05 10:13:48;;;;;;;17.00;12.80;;;;;;;9.20;30.90;95511.66;5014240;28;20082;-70
2022/03/05 10:16:28;;;;;;;14.88;12.65;;;;;;;9.45;30.22;95505.22;5014136;28;20112;-69
2022/03/05 10:18:54;;;;;;;12.93;10.93;;;;;;;9.14;29.87;95507.50;5014127;28;20040;-69
2022/03/05 10:21:27;;;;;;;12.45;9.90;;;;;;;9.08;28.88;95503.31;5014063;28;20371;-69
2022/03/05 10:24:07;;;;;;;12.30;10.00;;;;;;;10.40;27.98;95498.69;5009722;28;20033;-70
2022/03/05 10:26:53;;;;;;;15.85;13.52;;;;;;;9.50;29.85;95499.03;5014371;28;20037;-69
2022/03/05 10:29:24;;;;;;;15.35;11.93;;;;;;;9.82;29.34;95506.25;5014098;28;20112;-70
2022/03/05 10:31:56;;;;;;;13.35;11.00;;;;;;;9.77;28.73;95503.69;5031483;28;20068;-70
2022/03/05 10:34:21;;;;;;;;;;;;;;;10.49;28.53;95501.44;5014447;28;20025;-69
2022/03/05 10:36:59;;;;;;;14.43;11.50;;;;;;;11.31;27.39;95503.28;5014061;28;19913;-68
2022/03/05 10:39:26;;;;;;;15.55;12.55;;;;;;;10.29;29.17;95507.13;5028577;28;20481;-67
2022/03/05 10:41:52;;;;;;;16.85;12.45;;;;;;;8.96;29.44;95502.97;5031021;28;20032;-69
2022/03/05 10:44:18;;;;;;;13.15;11.27;;;;;;;9.06;29.77;95461.16;5031512;28;20025;-68
2022/03/05 10:47:01;;;;;;;12.65;11.02;;;;;;;8.80;30.25;95502.31;5031332;28;20109;-69
2022/03/05 10:49:29;;;;;;;14.40;10.50;;;;;;;8.89;29.33;95499.84;5031047;28;20044;-69
2022/03/05 10:52:00;;;;;;;11.75;10.40;;;;;;;8.70;29.79;95491.84;5013325;28;20505;-68
2022/03/05 10:54:27;;;;;;;13.45;10.88;;;;;;;8.45;30.01;95503.53;5028712;28;20433;-68
2022/03/05 10:56:55;;;;;;;13.23;11.30;;;;;;;8.62;29.93;95509.16;5031217;28;20013;-69
2022/03/05 10:59:22;;;;;;;11.60;10.27;;;;;;;8.13;29.81;95496.91;5030660;28;20018;-70
2022/03/05 11:01:48;;;;;;;13.02;10.30;;;;;;;7.59;30.91;95500.53;5030768;28;20032;-70
2022/03/05 11:04:13;;;;;;;12.45;10.20;;;;;;;7.63;31.05;95485.69;5030756;28;20045;-70
2022/03/05 11:06:43;;;;;;;12.02;10.82;;;;;;;7.36;30.90;95509.91;5013432;28;20025;-70
2022/03/05 11:09:11;;;;;;;13.55;9.98;;;;;;;7.41;30.61;95488.72;5010139;28;20017;-69
2022/03/05 11:11:42;;;;;;;12.18;10.50;;;;;;;7.63;30.38;95508.72;5030577;28;20088;-71
2022/03/05 11:14:15;;;;;;;12.38;10.02;;;;;;;8.36;29.32;95500.69;5031228;28;20032;-69
2022/03/05 11:16:41;;;;;;;13.05;10.93;;;;;;;7.94;30.40;95512.72;5013401;28;20375;-69
2022/03/05 11:19:07;;;;;;;13.52;11.13;;;;;;;7.11;31.28;95502.13;5013541;28;20501;-68
2022/03/05 11:21:34;;;;;;;12.15;10.85;;;;;;;7.11;32.10;95481.75;5013087;28;20049;-70
2022/03/05 11:24:01;;;;;;;12.25;11.02;;;;;;;7.49;30.98;95501.38;5030313;28;20025;-69